Archiv-/Tagesdaten

--Timestamp---	Temp	Chill	HIndex	Humid	Dewpt	Wind	HiWind	WindDir	Rain	Barom	        Solar	ET	UV
--------------	----	-----	------	-----	-----	----	------	-------	----	-----	        -----	--	--
20081125 00:05	-0.3	-0.3	-0.3	89	-1.9	3	6	225	0.00	1000.748	0	0.000	0
20081125 00:10	-0.3	-0.3	-0.3	89	-1.9	2	6	225	0.00	1000.782	0	0.000	0
20081125 00:15	-0.3	-0.3	-0.3	89	-1.9	0	3	225	0.00	1000.816	0	0.000	0
20081125 00:20	-0.3	-0.3	-0.3	89	-1.9	2	5	225	0.00	1000.850	0	0.000	0
20081125 00:25	-0.2	-0.2	-0.2	89	-1.8	0	3	225	0.00	1000.952	0	0.000	0
20081125 00:30	-0.2	-0.2	-0.2	89	-1.8	0	2	225	0.00	1001.053	0	0.000	0
20081125 00:35	-0.2	-0.2	-0.2	89	-1.8	0	3	225	0.00	1001.053	0	0.000	0
20081125 00:40	-0.2	-0.2	-0.2	89	-1.8	0	2	225	0.00	1001.087	0	0.000	0
20081125 00:45	-0.2	-0.2	-0.2	89	-1.8	0	3	225	0.00	1001.155	0	0.000	0
20081125 00:50	-0.2	-0.2	-0.2	89	-1.8	0	3	225	0.00	1001.155	0	0.000	0
20081125 00:55	-0.2	-0.2	-0.2	89	-1.8	0	3	225	0.00	1001.121	0	0.000	0
20081125 01:00	-0.2	-0.2	-0.2	89	-1.8	2	3	225	0.00	1001.121	0	0.000	0
20081125 01:05	-0.2	-0.2	-0.2	89	-1.8	2	5	225	0.00	1000.985	0	0.000	0
20081125 01:10	-0.2	-0.2	-0.2	89	-1.8	2	3	225	0.00	1001.019	0	0.000	0
20081125 01:15	-0.1	-0.1	-0.1	89	-1.7	2	3	225	0.00	1001.087	0	0.000	0
20081125 01:20	-0.1	-0.1	-0.1	89	-1.6	2	5	225	0.00	1001.087	0	0.000	0
20081125 01:25	-0.1	-0.1	-0.1	89	-1.6	0	3	225	0.00	1001.189	0	0.000	0
20081125 01:30	0.0	0.0	0.0	89	-1.6	0	3	225	0.00	1001.256	0	0.000	0
20081125 01:35	0.1	0.1	0.1	89	-1.5	0	2	225	0.00	1001.290	0	0.000	0
20081125 01:40	0.2	0.2	0.2	89	-1.4	3	5	225	0.00	1001.392	0	0.000	0
20081125 01:45	0.1	0.1	0.1	88	-1.6	3	6	225	0.00	1001.493	0	0.000	0
20081125 01:50	0.1	0.1	0.1	88	-1.7	3	6	225	0.00	1001.527	0	0.000	0
20081125 01:55	0.1	0.1	0.1	89	-1.5	2	6	225	0.00	1001.561	0	0.000	0
20081125 02:00	0.1	0.1	0.1	89	-1.5	2	5	225	0.00	1001.595	0	0.000	0
20081125 02:05	0.1	0.1	0.1	89	-1.5	0	2	225	0.00	1001.629	0	0.000	0
20081125 02:10	0.1	0.1	0.1	89	-1.5	0	3	225	0.00	1001.798	0	0.000	0
20081125 02:15	0.1	0.1	0.1	89	-1.5	0	3	225	0.00	1001.866	0	0.000	0
20081125 02:20	0.1	0.1	0.1	89	-1.5	2	6	225	0.00	1002.035	0	0.000	0
20081125 02:25	0.0	0.0	0.0	95	-0.7	0	2	225	0.00	1002.069	0	0.000	0
20081125 02:30	0.0	0.0	0.0	95	-0.7	0	3	225	0.00	1002.137	0	0.000	0
20081125 02:35	0.1	0.1	0.1	89	-1.5	0	2	225	0.00	1002.069	0	0.000	0
20081125 02:40	0.1	0.1	0.1	89	-1.5	0	3	225	0.00	1002.171	0	0.000	0
20081125 02:45	0.2	0.2	0.2	89	-1.4	0	2	225	0.00	1002.306	0	0.000	0
20081125 02:50	0.2	0.2	0.2	89	-1.4	0	3	225	0.00	1002.340	0	0.000	0
20081125 02:55	0.3	0.3	0.3	89	-1.3	2	3	225	0.00	1002.374	0	0.000	0
20081125 03:00	0.3	0.3	0.3	89	-1.3	0	2	225	0.00	1002.442	0	0.000	0
20081125 03:05	0.3	0.3	0.3	88	-1.4	0	2	225	0.00	1002.509	0	0.000	0
20081125 03:10	0.4	0.4	0.4	88	-1.3	0	0	225	0.00	1002.543	0	0.000	0
20081125 03:15	0.4	0.4	0.4	88	-1.3	0	0	225	0.00	1002.611	0	0.000	0
20081125 03:20	0.5	0.5	0.5	88	-1.3	0	0	225	0.00	1002.780	0	0.000	0
20081125 03:25	0.6	0.6	0.6	88	-1.2	0	0	225	0.00	1002.848	0	0.000	0
20081125 03:30	0.6	0.6	0.6	88	-1.2	0	0	225	0.00	1002.882	0	0.000	0
20081125 03:35	0.6	0.6	0.6	87	-1.4	0	3	225	0.00	1002.882	0	0.000	0
20081125 03:40	0.6	0.6	0.6	87	-1.4	2	3	225	0.00	1002.916	0	0.000	0
20081125 03:45	0.5	0.5	0.5	87	-1.4	2	3	225	0.00	1002.983	0	0.000	0
20081125 03:50	0.5	0.5	0.5	87	-1.4	2	5	225	0.00	1003.051	0	0.000	0
20081125 03:55	0.6	0.6	0.6	87	-1.4	2	5	225	0.00	1003.017	0	0.000	0
20081125 04:00	0.6	0.6	0.6	87	-1.3	2	3	225	0.00	1003.051	0	0.000	0
20081125 04:05	0.6	0.6	0.6	87	-1.3	2	5	225	0.00	1003.254	0	0.000	0
20081125 04:10	0.5	0.5	0.5	87	-1.4	2	5	225	0.00	1003.288	0	0.000	0
20081125 04:15	0.5	0.5	0.5	87	-1.4	3	6	225	0.00	1003.356	0	0.000	0
20081125 04:20	0.4	0.4	0.4	87	-1.5	3	6	292	0.00	1003.322	0	0.000	0
20081125 04:25	0.4	0.4	0.4	87	-1.5	3	6	292	0.00	1003.390	0	0.000	0
20081125 04:30	0.4	0.4	0.4	88	-1.4	5	6	292	0.00	1003.424	0	0.000	0
20081125 04:35	0.3	0.3	0.3	88	-1.4	3	5	292	0.00	1003.458	0	0.000	0
20081125 04:40	0.3	0.3	0.3	88	-1.4	2	5	292	0.00	1003.424	0	0.000	0
20081125 04:45	0.3	0.3	0.3	88	-1.4	3	6	292	0.00	1003.525	0	0.000	0
20081125 04:50	0.3	0.3	0.3	88	-1.5	3	6	292	0.00	1003.559	0	0.000	0
20081125 04:55	0.3	0.3	0.3	87	-1.6	3	6	292	0.00	1003.559	0	0.000	0
20081125 05:00	0.2	0.2	0.2	87	-1.7	2	6	292	0.00	1003.762	0	0.000	0
20081125 05:05	0.2	0.2	0.2	87	-1.7	2	5	292	0.00	1003.695	0	0.000	0
20081125 05:10	0.2	0.2	0.2	87	-1.7	2	5	292	0.00	1003.796	0	0.000	0
20081125 05:15	0.2	0.2	0.2	87	-1.7	3	6	292	0.00	1003.830	0	0.000	0
20081125 05:20	0.2	0.2	0.2	88	-1.6	2	5	292	0.00	1003.830	0	0.000	0
20081125 05:25	0.2	0.2	0.2	88	-1.6	2	5	292	0.00	1003.898	0	0.000	0
20081125 05:30	0.2	0.2	0.2	88	-1.6	2	5	292	0.00	1004.033	0	0.000	0
20081125 05:35	0.2	0.2	0.2	87	-1.7	3	5	292	0.00	1004.067	0	0.000	0
20081125 05:40	0.2	0.2	0.2	87	-1.7	2	5	292	0.00	1004.101	0	0.000	0
20081125 05:45	0.1	0.1	0.1	87	-1.8	2	5	292	0.00	1004.101	0	0.000	0
20081125 05:50	0.1	0.1	0.1	87	-1.8	0	3	292	0.00	1004.203	0	0.000	0
20081125 05:55	0.1	0.1	0.1	87	-1.8	0	3	292	0.00	1004.304	0	0.000	0
20081125 06:00	-0.1	-0.1	-0.1	88	-1.8	0	3	292	0.00	1004.372	0	0.000	0
20081125 06:05	-0.1	-0.1	-0.1	88	-1.9	2	5	292	0.00	1004.440	0	0.000	0
20081125 06:10	-0.2	-0.2	-0.2	88	-2.0	2	3	292	0.00	1004.575	0	0.000	0
20081125 06:15	-0.3	-0.3	-0.3	88	-2.0	2	5	292	0.00	1004.711	0	0.000	0
20081125 06:20	-0.3	-0.3	-0.3	88	-2.1	2	3	292	0.00	1004.778	0	0.000	0
20081125 06:25	-0.4	-0.4	-0.4	88	-2.1	2	5	292	0.00	1004.744	0	0.000	0
20081125 06:30	-0.4	-0.4	-0.4	88	-2.1	3	6	292	0.00	1004.914	0	0.000	0
20081125 06:35	-0.4	-0.4	-0.4	88	-2.2	0	3	292	0.00	1005.049	0	0.000	0
20081125 06:40	-0.4	-0.4	-0.4	88	-2.2	2	5	292	0.00	1005.117	0	0.000	0
20081125 06:45	-0.5	-0.5	-0.5	88	-2.2	3	8	180	0.00	1005.218	0	0.000	0
20081125 06:50	-0.6	-0.6	-0.6	88	-2.3	2	6	180	0.00	1005.252	0	0.000	0
20081125 06:55	-0.7	-0.7	-0.7	88	-2.4	3	6	180	0.00	1005.320	0	0.000	0
20081125 07:00	-0.6	-0.6	-0.6	88	-2.3	3	6	180	0.00	1005.456	0	0.000	0
20081125 07:05	-0.6	-0.6	-0.6	88	-2.3	2	5	180	0.00	1005.523	0	0.000	0
20081125 07:10	-0.6	-0.6	-0.6	88	-2.3	2	5	180	0.00	1005.523	0	0.000	0
20081125 07:15	-0.6	-0.6	-0.6	88	-2.3	0	3	180	0.00	1005.659	0	0.000	0
20081125 07:20	-0.5	-0.5	-0.5	89	-2.1	2	5	180	0.00	1005.794	0	0.000	0
20081125 07:25	-0.4	-0.4	-0.4	89	-2.0	2	6	180	0.00	1005.862	0	0.000	0
20081125 07:30	-0.4	-0.4	-0.4	88	-2.2	2	3	180	0.00	1006.065	0	0.000	0
20081125 07:35	-0.4	-0.4	-0.4	89	-2.0	0	2	180	0.00	1006.167	0	0.000	0
20081125 07:40	-0.3	-0.3	-0.3	89	-1.9	2	5	180	0.00	1006.167	0	0.000	0
20081125 07:45	-0.3	-0.3	-0.3	89	-1.9	0	3	180	0.00	1006.302	0	0.000	0
20081125 07:50	-0.2	-0.2	-0.2	89	-1.8	0	3	180	0.00	1006.370	5	0.000	0
20081125 07:55	-0.2	-0.2	-0.2	89	-1.8	2	3	180	0.00	1006.438	7	0.000	0
20081125 08:00	-0.1	-0.1	-0.1	89	-1.6	0	3	180	0.00	1006.573	9	0.000	0
20081125 08:05	0.0	0.0	0.0	89	-1.6	2	8	180	0.00	1006.708	9	0.000	0
20081125 08:10	0.1	0.1	0.1	88	-1.6	2	6	270	0.00	1006.708	13	0.000	0
20081125 08:15	0.1	0.1	0.1	88	-1.6	2	6	270	0.00	1006.708	21	0.000	0
20081125 08:20	0.2	0.2	0.2	87	-1.7	5	11	270	0.00	1006.844	23	0.000	0
20081125 08:25	0.2	-2.0	0.2	87	-1.7	6	14	270	0.00	1006.878	18	0.000	0
20081125 08:30	0.2	-2.5	0.2	87	-1.7	8	16	270	0.00	1007.013	17	0.000	0
20081125 08:35	0.1	0.1	0.1	87	-1.8	5	11	292	0.00	1007.047	22	0.000	0
20081125 08:40	0.1	0.1	0.1	87	-1.8	3	10	292	0.00	1007.115	32	0.000	0
20081125 08:45	0.1	0.1	0.1	87	-1.8	5	14	292	0.00	1007.183	39	0.000	0
20081125 08:50	-0.1	-2.8	-0.1	87	-2.0	8	14	270	0.00	1007.250	49	0.000	0
20081125 08:55	-0.2	-2.9	-0.2	87	-2.1	8	14	270	0.00	1007.386	74	0.000	0
20081125 09:00	-0.2	-2.4	-0.2	88	-1.9	6	14	270	0.00	1007.352	62	0.020	0
20081125 09:05	-0.1	-2.3	-0.1	88	-1.9	6	13	292	0.00	1007.386	69	0.000	0
20081125 09:10	-0.1	-2.2	-0.1	88	-1.8	6	14	270	0.00	1007.487	71	0.000	0
20081125 09:15	0.0	-2.2	0.0	88	-1.7	6	14	270	0.00	1007.589	63	0.000	0
20081125 09:20	0.1	-2.1	0.1	88	-1.7	6	16	270	0.00	1007.657	67	0.000	0
20081125 09:25	0.1	0.1	0.1	88	-1.6	5	8	270	0.00	1007.758	77	0.000	0
20081125 09:30	0.2	-2.0	0.2	87	-1.7	6	16	270	0.00	1007.928	81	0.000	0
20081125 09:35	0.3	-1.9	0.3	87	-1.6	6	13	270	0.00	1008.029	76	0.000	0
20081125 09:40	0.3	0.3	0.3	87	-1.6	5	11	292	0.00	1008.097	81	0.000	0
20081125 09:45	0.3	0.3	0.3	87	-1.6	5	11	270	0.00	1008.131	81	0.000	0
20081125 09:50	0.3	-1.9	0.3	86	-1.8	6	11	270	0.00	1008.198	89	0.000	0
20081125 09:55	0.3	-1.8	0.3	86	-1.7	6	10	247	0.00	1008.266	107	0.000	0
20081125 10:00	0.3	-1.8	0.3	85	-1.9	6	11	247	0.00	1008.334	133	0.020	0
20081125 10:05	0.4	-1.7	0.4	85	-1.8	6	16	247	0.00	1008.605	123	0.000	0
20081125 10:10	0.4	0.4	0.4	85	-1.8	5	10	270	0.00	1008.673	109	0.000	0
20081125 10:15	0.4	-1.7	0.4	84	-1.9	6	14	270	0.00	1008.740	103	0.000	0
20081125 10:20	0.4	-2.7	0.4	84	-2.0	10	21	270	0.00	1008.876	90	0.000	0
20081125 10:25	0.3	-2.3	0.3	85	-1.9	8	14	270	0.00	1009.011	73	0.000	0
20081125 10:30	0.3	-1.8	0.3	85	-1.9	6	14	270	0.00	1009.079	82	0.000	0
20081125 10:35	0.3	-1.8	0.3	85	-1.9	6	13	270	0.00	1009.113	85	0.000	0
20081125 10:40	0.3	-1.8	0.3	86	-1.7	6	14	247	0.00	1009.282	76	0.000	0
20081125 10:45	0.3	-1.8	0.3	86	-1.7	6	18	270	0.00	1009.384	52	0.000	0
20081125 10:50	0.3	-1.8	0.3	87	-1.6	6	10	270	0.00	1009.384	56	0.000	0
20081125 10:55	0.3	-1.9	0.3	87	-1.6	6	16	270	0.00	1009.519	81	0.000	0
20081125 11:00	0.3	-1.9	0.3	86	-1.8	6	16	270	0.00	1009.621	90	0.020	0
20081125 11:05	0.3	-1.9	0.3	86	-1.8	6	13	270	0.00	1009.722	108	0.000	1
20081125 11:10	0.3	-1.9	0.3	86	-1.8	6	10	292	0.00	1009.756	104	0.000	1
20081125 11:15	0.3	-2.4	0.3	86	-1.8	8	14	270	0.00	1009.858	108	0.000	1
20081125 11:20	0.3	-1.8	0.3	86	-1.7	6	11	292	0.00	1009.892	112	0.000	1
20081125 11:25	0.3	-2.3	0.3	85	-1.9	8	16	292	0.00	1009.926	118	0.000	1
20081125 11:30	0.3	-2.8	0.3	84	-2.0	10	16	270	0.00	1009.993	104	0.000	1
20081125 11:35	0.3	-2.3	0.3	84	-2.0	8	16	270	0.00	1010.027	87	0.000	0
20081125 11:40	0.3	-2.9	0.3	84	-2.1	10	16	292	0.00	1010.196	97	0.000	0
20081125 11:45	0.2	-3.4	0.2	84	-2.2	11	21	315	0.00	1010.400	98	0.000	1
20081125 11:50	0.1	-3.1	0.1	84	-2.3	10	16	270	0.00	1010.501	87	0.000	0
20081125 11:55	0.2	-3.0	0.2	85	-2.1	10	18	292	0.00	1010.400	121	0.000	1
20081125 12:00	0.2	-2.5	0.2	84	-2.2	8	18	292	0.00	1010.400	136	0.040	1
20081125 12:05	0.2	-2.5	0.2	84	-2.2	8	13	270	0.00	1010.366	117	0.000	1
20081125 12:10	0.2	-2.5	0.2	84	-2.2	8	14	292	0.00	1010.433	115	0.000	1
20081125 12:15	0.1	-2.6	0.1	84	-2.3	8	16	270	0.00	1010.467	124	0.000	1
20081125 12:20	0.2	-2.5	0.2	84	-2.2	8	16	270	0.00	1010.535	123	0.000	1
20081125 12:25	0.2	0.2	0.2	84	-2.2	5	8	292	0.00	1010.569	130	0.000	1
20081125 12:30	0.2	0.2	0.2	83	-2.3	5	11	247	0.00	1010.501	138	0.000	1
20081125 12:35	0.3	-1.9	0.3	83	-2.3	6	16	292	0.00	1010.535	137	0.000	1
20081125 12:40	0.3	0.3	0.3	83	-2.2	5	11	292	0.00	1010.569	145	0.000	1
20081125 12:45	0.3	-2.3	0.3	82	-2.4	8	11	270	0.00	1010.603	142	0.000	1
20081125 12:50	0.3	-1.9	0.3	82	-2.4	6	14	270	0.00	1010.671	143	0.000	1
20081125 12:55	0.3	-1.9	0.3	83	-2.3	6	10	270	0.00	1010.806	132	0.000	1
20081125 13:00	0.3	0.3	0.3	83	-2.2	5	10	270	0.00	1010.908	122	0.040	1
20081125 13:05	0.4	0.4	0.4	83	-2.2	5	11	292	0.00	1011.009	94	0.000	1
20081125 13:10	0.4	-1.7	0.4	82	-2.3	6	11	270	0.00	1011.043	88	0.000	1
20081125 13:15	0.4	-2.2	0.4	82	-2.3	8	14	292	0.00	1011.212	120	0.000	1
20081125 13:20	0.4	-2.3	0.4	80	-2.7	8	14	315	0.00	1011.416	92	0.000	1
20081125 13:25	0.2	-1.9	0.2	80	-2.8	6	14	270	0.00	1011.551	129	0.000	1
20081125 13:30	0.2	0.2	0.2	79	-3.0	5	8	270	0.00	1011.517	103	0.000	1
20081125 13:35	0.2	0.2	0.2	78	-3.2	5	10	270	0.00	1011.517	121	0.000	1
20081125 13:40	0.1	-2.1	0.1	77	-3.4	6	10	270	0.00	1011.585	99	0.000	1
20081125 13:45	0.2	0.2	0.2	77	-3.4	5	8	270	0.00	1011.551	194	0.000	1
20081125 13:50	0.5	-1.6	0.5	75	-3.4	6	16	315	0.00	1011.686	257	0.000	1
20081125 13:55	0.7	-1.3	0.7	74	-3.4	6	14	270	0.00	1011.720	201	0.000	1
20081125 14:00	1.0	-1.0	1.0	73	-3.3	6	11	292	0.00	1011.517	288	0.040	1
20081125 14:05	1.3	-0.7	1.3	72	-3.2	6	11	292	0.00	1011.517	267	0.000	1
20081125 14:10	1.2	-0.8	1.2	71	-3.4	6	11	292	0.00	1011.619	166	0.000	1
20081125 14:15	1.0	1.0	1.0	71	-3.7	5	10	292	0.00	1011.653	50	0.000	0
20081125 14:20	0.7	0.7	0.7	71	-4.0	5	10	270	0.00	1011.720	43	0.000	0
20081125 14:25	0.5	0.5	0.5	71	-4.1	3	8	247	0.00	1011.890	39	0.000	0
20081125 14:30	0.4	0.4	0.4	71	-4.2	5	6	315	0.00	1011.924	38	0.000	0
20081125 14:35	0.4	0.4	0.4	71	-4.2	3	6	270	0.00	1011.924	37	0.000	0
20081125 14:40	0.3	0.3	0.3	71	-4.3	5	8	270	0.00	1011.991	35	0.000	0
20081125 14:45	0.3	0.3	0.3	72	-4.2	5	10	292	0.00	1012.093	35	0.000	0
20081125 14:50	0.3	0.3	0.3	71	-4.3	3	6	247	0.00	1012.127	33	0.000	0
20081125 14:55	0.3	0.3	0.3	70	-4.5	3	8	247	0.00	1012.228	33	0.000	0
20081125 15:00	0.2	0.2	0.2	71	-4.4	5	8	247	0.00	1012.499	32	0.020	0
20081125 15:05	0.2	0.2	0.2	71	-4.5	3	8	270	0.00	1012.533	31	0.000	0
20081125 15:10	0.2	0.2	0.2	72	-4.3	3	6	247	0.00	1012.635	29	0.000	0
20081125 15:15	0.1	0.1	0.1	71	-4.6	3	10	247	0.00	1012.804	27	0.000	0
20081125 15:20	0.1	0.1	0.1	71	-4.6	3	6	247	0.00	1012.939	26	0.000	0
20081125 15:25	0.0	0.0	0.0	72	-4.4	3	6	247	0.00	1013.007	26	0.000	0
20081125 15:30	-0.1	-0.1	-0.1	72	-4.5	3	6	247	0.00	1013.041	25	0.000	0
20081125 15:35	-0.2	-0.2	-0.2	72	-4.6	5	10	247	0.00	1013.007	23	0.000	0
20081125 15:40	-0.2	-0.2	-0.2	72	-4.7	5	8	247	0.00	1013.075	21	0.000	0
20081125 15:45	-0.3	-0.3	-0.3	73	-4.5	3	8	247	0.00	1013.210	19	0.000	0
20081125 15:50	-0.4	-2.6	-0.4	72	-4.8	6	8	270	0.00	1013.414	19	0.000	0
20081125 15:55	-0.6	-0.6	-0.6	73	-4.8	5	8	270	0.00	1013.684	17	0.000	0
20081125 16:00	-0.7	-0.7	-0.7	74	-4.8	3	6	270	0.00	1013.684	15	0.020	0
20081125 16:05	-0.8	-0.8	-0.8	74	-4.9	5	8	292	0.00	1013.854	13	0.000	0
20081125 16:10	-0.9	-3.3	-0.9	74	-5.0	6	10	270	0.00	1013.955	12	0.000	0
20081125 16:15	-1.0	-3.3	-1.0	75	-4.9	6	10	270	0.00	1014.125	9	0.000	0
20081125 16:20	-1.1	-3.5	-1.1	75	-5.0	6	10	270	0.00	1014.226	7	0.000	0
20081125 16:25	-1.2	-1.2	-1.2	76	-4.8	5	8	270	0.00	1014.294	3	0.000	0
20081125 16:30	-1.2	-1.2	-1.2	76	-4.8	5	10	270	0.00	1014.396	0	0.000	0
20081125 16:35	-1.2	-1.2	-1.2	77	-4.7	3	8	292	0.00	1014.463	0	0.000	0
20081125 16:40	-1.2	-1.2	-1.2	77	-4.7	3	6	292	0.00	1014.565	0	0.000	0
20081125 16:45	-1.3	-1.3	-1.3	77	-4.8	3	6	270	0.00	1014.599	0	0.000	0
20081125 16:50	-1.4	-1.4	-1.4	77	-4.9	3	6	292	0.00	1014.904	0	0.000	0
20081125 16:55	-1.6	-1.6	-1.6	78	-4.9	2	5	292	0.00	1015.005	0	0.000	0
20081125 17:00	-1.7	-1.7	-1.7	79	-4.8	2	6	292	0.00	1015.107	0	0.000	0
20081125 17:05	-1.7	-1.7	-1.7	79	-4.9	3	6	315	0.00	1015.208	0	0.000	0
20081125 17:10	-1.7	-1.7	-1.7	79	-4.9	3	8	315	0.00	1015.276	0	0.000	0
20081125 17:15	-1.7	-1.7	-1.7	81	-4.5	5	8	292	0.00	1015.344	0	0.000	0
20081125 17:20	-1.6	-1.6	-1.6	81	-4.4	5	11	292	0.00	1015.445	0	0.000	0
20081125 17:25	-1.5	-3.9	-1.5	81	-4.3	6	11	292	0.00	1015.513	0	0.000	0
20081125 17:30	-1.4	-3.8	-1.4	81	-4.2	6	10	292	0.00	1015.615	0	0.000	0
20081125 17:35	-1.3	-1.3	-1.3	81	-4.2	5	8	292	0.00	1015.581	0	0.000	0
20081125 17:40	-1.3	-3.7	-1.3	81	-4.1	6	10	315	0.00	1015.581	0	0.000	0
20081125 17:45	-1.3	-1.3	-1.3	81	-4.1	5	8	292	0.00	1015.649	0	0.000	0
20081125 17:50	-1.2	-1.2	-1.2	81	-4.1	5	6	292	0.00	1015.852	0	0.000	0
20081125 17:55	-1.3	-1.3	-1.3	80	-4.3	5	14	292	0.00	1015.852	0	0.000	0
20081125 18:00	-1.3	-1.3	-1.3	80	-4.3	3	6	292	0.00	1015.953	0	0.000	0
20081125 18:05	-1.3	-1.3	-1.3	81	-4.1	3	8	292	0.00	1016.190	0	0.000	0
20081125 18:10	-1.3	-1.3	-1.3	81	-4.1	2	6	315	0.00	1016.360	0	0.000	0
20081125 18:15	-1.3	-1.3	-1.3	81	-4.1	3	6	315	0.00	1016.461	0	0.000	0
20081125 18:20	-1.3	-1.3	-1.3	81	-4.1	5	10	315	0.00	1016.631	0	0.000	0
20081125 18:25	-1.2	-1.2	-1.2	81	-4.1	5	10	315	0.00	1016.631	0	0.000	0
20081125 18:30	-1.2	-1.2	-1.2	81	-4.1	3	8	315	0.00	1016.698	0	0.000	0
20081125 18:35	-1.2	-1.2	-1.2	81	-4.1	2	5	292	0.00	1016.800	0	0.000	0
20081125 18:40	-1.3	-1.3	-1.3	81	-4.1	3	6	292	0.00	1016.935	0	0.000	0
20081125 18:45	-1.3	-1.3	-1.3	81	-4.1	3	6	292	0.00	1017.071	0	0.000	0
20081125 18:50	-1.3	-1.3	-1.3	81	-4.2	5	8	315	0.00	1017.240	0	0.000	0
20081125 18:55	-1.3	-1.3	-1.3	81	-4.2	3	6	315	0.00	1017.206	0	0.000	0
20081125 19:00	-1.4	-1.4	-1.4	81	-4.2	3	6	292	0.00	1017.240	0	0.000	0
20081125 19:05	-1.4	-1.4	-1.4	81	-4.3	3	8	315	0.00	1017.308	0	0.000	0
20081125 19:10	-1.5	-1.5	-1.5	82	-4.2	3	6	292	0.00	1017.376	0	0.000	0
20081125 19:15	-1.6	-1.6	-1.6	82	-4.2	3	6	315	0.00	1017.477	0	0.000	0
20081125 19:20	-1.6	-1.6	-1.6	83	-4.1	3	6	315	0.00	1017.511	0	0.000	0
20081125 19:25	-1.6	-1.6	-1.6	83	-4.1	5	8	315	0.00	1017.613	0	0.000	0
20081125 19:30	-1.6	-1.6	-1.6	83	-4.1	3	8	292	0.00	1017.647	0	0.000	0
20081125 19:35	-1.6	-1.6	-1.6	83	-4.1	5	8	315	0.00	1017.816	0	0.000	0
20081125 19:40	-1.6	-1.6	-1.6	83	-4.1	3	6	315	0.00	1017.850	0	0.000	0
20081125 19:45	-1.5	-1.5	-1.5	83	-4.0	3	6	315	0.00	1017.850	0	0.000	0
20081125 19:50	-1.5	-1.5	-1.5	83	-4.0	3	6	315	0.00	1017.917	0	0.000	0
20081125 19:55	-1.5	-1.5	-1.5	83	-4.0	2	5	315	0.00	1017.951	0	0.000	0
20081125 20:00	-1.5	-1.5	-1.5	83	-4.0	2	5	292	0.00	1018.019	0	0.000	0
20081125 20:05	-1.6	-1.6	-1.6	83	-4.1	3	6	292	0.00	1018.053	0	0.000	0
20081125 20:10	-1.6	-1.6	-1.6	83	-4.1	3	5	292	0.00	1018.053	0	0.000	0
20081125 20:15	-1.6	-1.6	-1.6	83	-4.1	2	5	292	0.00	1018.121	0	0.000	0
20081125 20:20	-1.6	-1.6	-1.6	83	-4.1	3	6	292	0.00	1018.222	0	0.000	0
20081125 20:25	-1.6	-1.6	-1.6	83	-4.1	3	6	292	0.00	1018.358	0	0.000	0
20081125 20:30	-1.6	-1.6	-1.6	83	-4.1	3	8	270	0.00	1018.459	0	0.000	0
20081125 20:35	-1.6	-1.6	-1.6	83	-4.1	3	8	270	0.00	1018.527	0	0.000	0
20081125 20:40	-1.6	-1.6	-1.6	83	-4.1	2	6	292	0.00	1018.561	0	0.000	0
20081125 20:45	-1.6	-1.6	-1.6	83	-4.1	2	5	292	0.00	1018.696	0	0.000	0
20081125 20:50	-1.5	-1.5	-1.5	83	-4.0	3	10	292	0.00	1018.764	0	0.000	0
20081125 20:55	-1.4	-3.8	-1.4	83	-4.0	6	13	292	0.00	1018.798	0	0.000	0
20081125 21:00	-1.4	-4.4	-1.4	83	-4.0	8	18	315	0.00	1018.899	0	0.000	0
20081125 21:05	-1.4	-3.8	-1.4	83	-4.0	6	11	270	0.00	1018.866	0	0.000	0
20081125 21:10	-1.5	-3.9	-1.5	83	-4.0	6	14	270	0.00	1018.933	0	0.000	0
20081125 21:15	-1.6	-4.0	-1.6	83	-4.1	6	10	270	0.00	1019.035	0	0.000	0
20081125 21:20	-1.6	-1.6	-1.6	83	-4.1	5	10	292	0.00	1019.069	0	0.000	0
20081125 21:25	-1.6	-1.6	-1.6	83	-4.1	3	6	270	0.00	1019.204	0	0.000	0
20081125 21:30	-1.6	-1.6	-1.6	83	-4.1	5	8	292	0.00	1019.272	0	0.000	0
20081125 21:35	-1.6	-4.0	-1.6	83	-4.1	6	11	292	0.00	1019.238	0	0.000	0
20081125 21:40	-1.6	-4.0	-1.6	83	-4.1	6	14	292	0.00	1019.238	0	0.000	0
20081125 21:45	-1.6	-1.6	-1.6	83	-4.1	5	10	292	0.00	1019.441	0	0.000	0
20081125 21:50	-1.6	-1.6	-1.6	83	-4.1	5	8	270	0.00	1019.543	0	0.000	0
20081125 21:55	-1.7	-1.7	-1.7	83	-4.2	5	8	270	0.00	1019.611	0	0.000	0
20081125 22:00	-1.7	-1.7	-1.7	83	-4.2	3	10	292	0.00	1019.678	0	0.000	0
20081125 22:05	-1.7	-1.7	-1.7	83	-4.2	5	11	292	0.00	1019.814	0	0.000	0
20081125 22:10	-1.7	-4.2	-1.7	83	-4.2	6	11	270	0.00	1019.882	0	0.000	0
20081125 22:15	-1.7	-1.7	-1.7	83	-4.2	5	10	270	0.00	1019.949	0	0.000	0
20081125 22:20	-1.8	-1.8	-1.8	83	-4.3	5	10	270	0.00	1019.983	0	0.000	0
20081125 22:25	-1.8	-4.3	-1.8	83	-4.3	6	10	270	0.00	1020.085	0	0.000	0
20081125 22:30	-1.9	-1.9	-1.9	83	-4.4	5	14	292	0.00	1020.152	0	0.000	0
20081125 22:35	-1.9	-1.9	-1.9	83	-4.4	5	11	270	0.00	1020.152	0	0.000	0
20081125 22:40	-2.0	-2.0	-2.0	83	-4.5	5	10	270	0.00	1020.390	0	0.000	0
20081125 22:45	-2.1	-2.1	-2.1	83	-4.5	5	8	270	0.00	1020.322	0	0.000	0
20081125 22:50	-2.1	-4.6	-2.1	83	-4.5	6	10	270	0.00	1020.390	0	0.000	0
20081125 22:55	-2.1	-2.1	-2.1	83	-4.6	5	11	270	0.00	1020.457	0	0.000	0
20081125 23:00	-2.2	-2.2	-2.2	83	-4.7	5	10	270	0.00	1020.491	0	0.000	0
20081125 23:05	-2.2	-2.2	-2.2	83	-4.7	5	11	270	0.00	1020.525	0	0.000	0
20081125 23:10	-2.3	-2.3	-2.3	83	-4.8	5	10	270	0.00	1020.627	0	0.000	0
20081125 23:15	-2.3	-4.9	-2.3	83	-4.8	6	10	270	0.00	1020.694	0	0.000	0
20081125 23:20	-2.4	-2.4	-2.4	83	-4.9	5	8	292	0.00	1020.762	0	0.000	0
20081125 23:25	-2.4	-4.9	-2.4	84	-4.7	6	11	270	0.00	1020.864	0	0.000	0
20081125 23:30	-2.4	-5.0	-2.4	84	-4.8	6	14	270	0.00	1020.931	0	0.000	0
20081125 23:35	-2.4	-5.0	-2.4	84	-4.8	6	13	270	0.00	1021.033	0	0.000	0
20081125 23:40	-2.4	-5.0	-2.4	84	-4.8	6	11	270	0.00	1021.101	0	0.000	0
20081125 23:45	-2.4	-4.9	-2.4	84	-4.7	6	10	270	0.00	1021.236	0	0.000	0
20081125 23:50	-2.4	-2.4	-2.4	84	-4.7	5	8	270	0.00	1021.202	0	0.000	0
20081125 23:55	-2.3	-4.9	-2.3	84	-4.7	6	10	270	0.00	1021.168	0	0.000	0
20081125 24:00	-2.3	-2.3	-2.3	84	-4.6	5	11	247	0.00	1021.134	0	0.000	0



Please note the license to use and transfer of this data:
http://creativecommons.org/licenses/by-nc-sa/3.0/deed.en

Bitte beachten sie die Lizenz zur Verwertung und Weitergabe der Daten:
http://creativecommons.org/licenses/by-nc-sa/3.0/deed.de

zurück zur Übersicht der Archivdaten (Monats und Tagesdaten)

Cookies helfen bei der Bereitstellung von Inhalten. Durch die Nutzung dieser Seiten erklärst du dich damit einverstanden, dass Cookies auf deinem Rechner gespeichert werden. Weitere Information